sensor_id;sensor_type;location;lat;lon;timestamp;P1;durP1;ratioP1;P2;durP2;ratioP2
69419;SDS011;56612;52.030;113.524;2022-12-29T00:02:54;175.38;;;52.40;;
69419;SDS011;56612;52.030;113.524;2022-12-29T00:05:58;105.73;;;37.60;;
69419;SDS011;56612;52.030;113.524;2022-12-29T00:09:01;115.70;;;40.30;;
69419;SDS011;56612;52.030;113.524;2022-12-29T00:12:04;119.63;;;48.60;;
69419;SDS011;56612;52.030;113.524;2022-12-29T00:15:08;157.07;;;53.07;;
69419;SDS011;56612;52.030;113.524;2022-12-29T00:18:30;69.63;;;31.70;;
69419;SDS011;56612;52.030;113.524;2022-12-29T00:21:33;119.38;;;41.58;;
69419;SDS011;56612;52.030;113.524;2022-12-29T00:24:55;243.35;;;75.78;;
69419;SDS011;56612;52.030;113.524;2022-12-29T00:28:08;166.65;;;58.17;;
69419;SDS011;56612;52.030;113.524;2022-12-29T00:31:31;160.10;;;50.80;;
69419;SDS011;56612;52.030;113.524;2022-12-29T00:34:53;145.10;;;56.70;;
69419;SDS011;56612;52.030;113.524;2022-12-29T00:38:11;223.83;;;80.50;;
69419;SDS011;56612;52.030;113.524;2022-12-29T00:41:34;190.57;;;70.10;;
69419;SDS011;56612;52.030;113.524;2022-12-29T00:44:56;133.27;;;53.38;;
69419;SDS011;56612;52.030;113.524;2022-12-29T00:47:59;140.40;;;47.03;;
69419;SDS011;56612;52.030;113.524;2022-12-29T00:51:02;169.55;;;52.60;;
69419;SDS011;56612;52.030;113.524;2022-12-29T00:54:06;122.03;;;38.30;;
69419;SDS011;56612;52.030;113.524;2022-12-29T00:57:10;154.95;;;45.08;;
69419;SDS011;56612;52.030;113.524;2022-12-29T01:00:14;164.75;;;54.33;;
69419;SDS011;56612;52.030;113.524;2022-12-29T01:03:18;161.48;;;57.92;;
69419;SDS011;56612;52.030;113.524;2022-12-29T01:06:22;136.13;;;41.70;;
69419;SDS011;56612;52.030;113.524;2022-12-29T01:09:26;105.33;;;43.33;;
69419;SDS011;56612;52.030;113.524;2022-12-29T01:12:47;114.30;;;46.83;;
69419;SDS011;56612;52.030;113.524;2022-12-29T01:15:53;122.15;;;45.65;;
69419;SDS011;56612;52.030;113.524;2022-12-29T01:18:58;183.70;;;55.27;;
69419;SDS011;56612;52.030;113.524;2022-12-29T01:22:03;341.63;;;110.90;;
69419;SDS011;56612;52.030;113.524;2022-12-29T01:25:07;149.40;;;55.50;;
69419;SDS011;56612;52.030;113.524;2022-12-29T01:28:12;74.20;;;26.85;;
69419;SDS011;56612;52.030;113.524;2022-12-29T01:31:22;79.97;;;36.67;;
69419;SDS011;56612;52.030;113.524;2022-12-29T01:34:27;107.78;;;38.42;;
69419;SDS011;56612;52.030;113.524;2022-12-29T01:37:32;115.90;;;46.38;;
69419;SDS011;56612;52.030;113.524;2022-12-29T01:40:42;108.73;;;39.90;;
69419;SDS011;56612;52.030;113.524;2022-12-29T01:43:48;101.55;;;42.97;;
69419;SDS011;56612;52.030;113.524;2022-12-29T01:46:55;170.90;;;53.67;;
69419;SDS011;56612;52.030;113.524;2022-12-29T01:50:00;163.83;;;57.03;;
69419;SDS011;56612;52.030;113.524;2022-12-29T01:53:41;112.38;;;44.67;;
69419;SDS011;56612;52.030;113.524;2022-12-29T01:56:45;130.40;;;46.53;;
69419;SDS011;56612;52.030;113.524;2022-12-29T01:59:57;209.95;;;70.95;;
69419;SDS011;56612;52.030;113.524;2022-12-29T02:03:13;166.27;;;58.67;;
69419;SDS011;56612;52.030;113.524;2022-12-29T02:13:44;242.67;;;83.43;;
69419;SDS011;56612;52.030;113.524;2022-12-29T02:17:01;186.25;;;57.90;;
69419;SDS011;56612;52.030;113.524;2022-12-29T02:23:48;160.70;;;56.23;;
69419;SDS011;56612;52.030;113.524;2022-12-29T02:36:51;197.13;;;68.22;;
69419;SDS011;56612;52.030;113.524;2022-12-29T02:46:44;136.87;;;54.17;;
69419;SDS011;56612;52.030;113.524;2022-12-29T02:53:11;181.55;;;61.50;;
69419;SDS011;56612;52.030;113.524;2022-12-29T02:56:18;143.73;;;55.03;;
69419;SDS011;56612;52.030;113.524;2022-12-29T02:59:22;165.02;;;59.45;;
69419;SDS011;56612;52.030;113.524;2022-12-29T03:09:59;231.18;;;84.22;;
69419;SDS011;56612;52.030;113.524;2022-12-29T03:16:55;145.10;;;58.50;;
69419;SDS011;56612;52.030;113.524;2022-12-29T03:20:04;166.43;;;61.37;;
69419;SDS011;56612;52.030;113.524;2022-12-29T03:23:30;148.93;;;58.90;;
69419;SDS011;56612;52.030;113.524;2022-12-29T03:26:35;224.63;;;75.13;;
69419;SDS011;56612;52.030;113.524;2022-12-29T03:29:40;302.93;;;101.57;;
69419;SDS011;56612;52.030;113.524;2022-12-29T03:33:08;206.48;;;76.22;;
69419;SDS011;56612;52.030;113.524;2022-12-29T03:36:17;212.73;;;79.00;;
69419;SDS011;56612;52.030;113.524;2022-12-29T03:39:28;223.82;;;87.40;;
69419;SDS011;56612;52.030;113.524;2022-12-29T03:42:32;337.70;;;109.03;;
69419;SDS011;56612;52.030;113.524;2022-12-29T03:45:56;258.83;;;97.03;;
69419;SDS011;56612;52.030;113.524;2022-12-29T03:49:19;237.32;;;87.55;;
69419;SDS011;56612;52.030;113.524;2022-12-29T03:52:42;242.07;;;93.43;;
69419;SDS011;56612;52.030;113.524;2022-12-29T03:55:45;218.45;;;86.93;;
69419;SDS011;56612;52.030;113.524;2022-12-29T03:58:48;219.30;;;70.18;;
69419;SDS011;56612;52.030;113.524;2022-12-29T04:02:03;358.80;;;123.17;;
69419;SDS011;56612;52.030;113.524;2022-12-29T04:05:07;186.82;;;68.03;;
69419;SDS011;56612;52.030;113.524;2022-12-29T04:08:12;291.33;;;99.55;;
69419;SDS011;56612;52.030;113.524;2022-12-29T04:11:16;87.85;;;35.58;;
69419;SDS011;56612;52.030;113.524;2022-12-29T04:14:21;268.90;;;93.22;;
69419;SDS011;56612;52.030;113.524;2022-12-29T04:17:33;239.43;;;87.55;;
69419;SDS011;56612;52.030;113.524;2022-12-29T04:20:44;178.93;;;64.30;;
69419;SDS011;56612;52.030;113.524;2022-12-29T04:24:17;221.67;;;83.53;;
69419;SDS011;56612;52.030;113.524;2022-12-29T04:27:24;241.15;;;80.70;;
69419;SDS011;56612;52.030;113.524;2022-12-29T04:30:53;259.85;;;87.82;;
69419;SDS011;56612;52.030;113.524;2022-12-29T04:34:01;217.07;;;78.47;;
69419;SDS011;56612;52.030;113.524;2022-12-29T04:37:05;290.08;;;98.70;;
69419;SDS011;56612;52.030;113.524;2022-12-29T04:40:11;244.32;;;87.18;;
69419;SDS011;56612;52.030;113.524;2022-12-29T04:43:23;301.00;;;99.70;;
69419;SDS011;56612;52.030;113.524;2022-12-29T04:46:53;207.07;;;72.57;;
69419;SDS011;56612;52.030;113.524;2022-12-29T04:50:15;261.55;;;84.82;;
69419;SDS011;56612;52.030;113.524;2022-12-29T04:53:27;144.20;;;51.50;;
69419;SDS011;56612;52.030;113.524;2022-12-29T04:56:33;274.37;;;90.60;;
69419;SDS011;56612;52.030;113.524;2022-12-29T04:59:37;205.20;;;75.35;;
69419;SDS011;56612;52.030;113.524;2022-12-29T05:02:44;208.13;;;71.55;;
69419;SDS011;56612;52.030;113.524;2022-12-29T05:05:52;219.13;;;70.70;;
69419;SDS011;56612;52.030;113.524;2022-12-29T05:09:01;232.95;;;75.07;;
69419;SDS011;56612;52.030;113.524;2022-12-29T05:12:06;233.10;;;80.28;;
69419;SDS011;56612;52.030;113.524;2022-12-29T05:15:19;253.75;;;85.15;;
69419;SDS011;56612;52.030;113.524;2022-12-29T05:18:25;279.08;;;87.93;;
69419;SDS011;56612;52.030;113.524;2022-12-29T05:21:31;286.88;;;95.13;;
69419;SDS011;56612;52.030;113.524;2022-12-29T05:24:54;267.83;;;90.30;;
69419;SDS011;56612;52.030;113.524;2022-12-29T05:27:59;318.67;;;102.30;;
69419;SDS011;56612;52.030;113.524;2022-12-29T05:31:14;310.85;;;109.35;;
69419;SDS011;56612;52.030;113.524;2022-12-29T05:34:18;322.30;;;106.65;;
69419;SDS011;56612;52.030;113.524;2022-12-29T05:40:45;272.60;;;91.97;;
69419;SDS011;56612;52.030;113.524;2022-12-29T05:44:04;270.88;;;91.88;;
69419;SDS011;56612;52.030;113.524;2022-12-29T05:47:16;288.33;;;95.82;;
69419;SDS011;56612;52.030;113.524;2022-12-29T05:50:35;244.77;;;80.53;;
69419;SDS011;56612;52.030;113.524;2022-12-29T05:53:45;294.73;;;94.87;;
69419;SDS011;56612;52.030;113.524;2022-12-29T05:56:49;247.93;;;83.88;;
69419;SDS011;56612;52.030;113.524;2022-12-29T05:59:54;248.50;;;84.15;;
69419;SDS011;56612;52.030;113.524;2022-12-29T06:03:16;232.27;;;77.80;;
69419;SDS011;56612;52.030;113.524;2022-12-29T06:06:21;245.25;;;81.22;;
69419;SDS011;56612;52.030;113.524;2022-12-29T06:09:25;193.57;;;68.20;;
69419;SDS011;56612;52.030;113.524;2022-12-29T06:12:29;205.23;;;69.70;;
69419;SDS011;56612;52.030;113.524;2022-12-29T06:15:33;205.25;;;71.43;;
69419;SDS011;56612;52.030;113.524;2022-12-29T06:22:18;182.63;;;60.65;;
69419;SDS011;56612;52.030;113.524;2022-12-29T06:25:22;147.60;;;49.72;;
69419;SDS011;56612;52.030;113.524;2022-12-29T06:28:26;151.45;;;48.90;;
69419;SDS011;56612;52.030;113.524;2022-12-29T06:31:29;174.57;;;56.58;;
69419;SDS011;56612;52.030;113.524;2022-12-29T06:34:33;159.30;;;48.93;;
69419;SDS011;56612;52.030;113.524;2022-12-29T06:37:37;164.18;;;52.90;;
69419;SDS011;56612;52.030;113.524;2022-12-29T06:40:41;168.20;;;55.60;;
69419;SDS011;56612;52.030;113.524;2022-12-29T06:43:53;190.43;;;59.05;;
69419;SDS011;56612;52.030;113.524;2022-12-29T06:47:18;182.33;;;56.77;;
69419;SDS011;56612;52.030;113.524;2022-12-29T06:50:21;198.95;;;66.25;;
69419;SDS011;56612;52.030;113.524;2022-12-29T06:53:24;188.80;;;63.30;;
69419;SDS011;56612;52.030;113.524;2022-12-29T06:56:46;199.32;;;62.15;;
69419;SDS011;56612;52.030;113.524;2022-12-29T06:59:49;186.38;;;62.55;;
69419;SDS011;56612;52.030;113.524;2022-12-29T07:02:54;197.80;;;64.07;;
69419;SDS011;56612;52.030;113.524;2022-12-29T07:05:59;192.40;;;65.80;;
69419;SDS011;56612;52.030;113.524;2022-12-29T07:09:02;211.80;;;72.53;;
69419;SDS011;56612;52.030;113.524;2022-12-29T07:12:06;188.35;;;63.72;;
69419;SDS011;56612;52.030;113.524;2022-12-29T07:15:09;188.95;;;65.72;;
69419;SDS011;56612;52.030;113.524;2022-12-29T07:18:13;200.00;;;67.40;;
69419;SDS011;56612;52.030;113.524;2022-12-29T07:21:16;190.40;;;65.82;;
69419;SDS011;56612;52.030;113.524;2022-12-29T07:24:19;206.13;;;69.07;;
69419;SDS011;56612;52.030;113.524;2022-12-29T07:27:22;223.88;;;76.03;;
69419;SDS011;56612;52.030;113.524;2022-12-29T07:30:26;214.25;;;71.65;;
69419;SDS011;56612;52.030;113.524;2022-12-29T07:33:29;192.23;;;65.47;;
69419;SDS011;56612;52.030;113.524;2022-12-29T07:36:34;244.40;;;79.63;;
69419;SDS011;56612;52.030;113.524;2022-12-29T07:39:38;213.73;;;75.43;;
69419;SDS011;56612;52.030;113.524;2022-12-29T07:42:41;216.60;;;71.97;;
69419;SDS011;56612;52.030;113.524;2022-12-29T07:46:11;190.63;;;61.63;;
69419;SDS011;56612;52.030;113.524;2022-12-29T07:49:35;201.87;;;68.20;;
69419;SDS011;56612;52.030;113.524;2022-12-29T07:52:39;213.23;;;71.70;;
69419;SDS011;56612;52.030;113.524;2022-12-29T07:56:00;207.77;;;68.72;;
69419;SDS011;56612;52.030;113.524;2022-12-29T07:59:23;192.07;;;60.95;;
69419;SDS011;56612;52.030;113.524;2022-12-29T08:02:27;225.73;;;75.30;;
69419;SDS011;56612;52.030;113.524;2022-12-29T08:05:32;248.50;;;78.10;;
69419;SDS011;56612;52.030;113.524;2022-12-29T08:08:37;245.68;;;75.25;;
69419;SDS011;56612;52.030;113.524;2022-12-29T08:11:41;236.45;;;70.80;;
69419;SDS011;56612;52.030;113.524;2022-12-29T08:14:45;252.80;;;78.57;;
69419;SDS011;56612;52.030;113.524;2022-12-29T08:21:12;229.32;;;72.38;;
69419;SDS011;56612;52.030;113.524;2022-12-29T08:24:16;234.13;;;72.00;;
69419;SDS011;56612;52.030;113.524;2022-12-29T08:27:19;238.07;;;76.28;;
69419;SDS011;56612;52.030;113.524;2022-12-29T08:30:23;272.90;;;79.57;;
69419;SDS011;56612;52.030;113.524;2022-12-29T08:33:44;243.20;;;82.72;;
69419;SDS011;56612;52.030;113.524;2022-12-29T08:36:47;248.80;;;77.88;;
69419;SDS011;56612;52.030;113.524;2022-12-29T08:39:51;258.80;;;81.57;;
69419;SDS011;56612;52.030;113.524;2022-12-29T08:42:53;250.23;;;81.03;;
69419;SDS011;56612;52.030;113.524;2022-12-29T08:45:57;219.32;;;74.80;;
69419;SDS011;56612;52.030;113.524;2022-12-29T08:49:01;326.10;;;98.38;;
69419;SDS011;56612;52.030;113.524;2022-12-29T08:52:04;250.30;;;86.50;;
69419;SDS011;56612;52.030;113.524;2022-12-29T08:55:09;304.75;;;100.68;;
69419;SDS011;56612;52.030;113.524;2022-12-29T08:58:12;329.77;;;108.95;;
69419;SDS011;56612;52.030;113.524;2022-12-29T09:01:18;323.83;;;109.25;;
69419;SDS011;56612;52.030;113.524;2022-12-29T09:04:22;300.70;;;98.57;;
69419;SDS011;56612;52.030;113.524;2022-12-29T09:07:26;299.10;;;97.68;;
69419;SDS011;56612;52.030;113.524;2022-12-29T09:10:30;367.75;;;119.55;;
69419;SDS011;56612;52.030;113.524;2022-12-29T09:16:56;389.80;;;128.40;;
69419;SDS011;56612;52.030;113.524;2022-12-29T09:20:19;369.25;;;113.38;;
69419;SDS011;56612;52.030;113.524;2022-12-29T09:23:23;323.00;;;111.90;;
69419;SDS011;56612;52.030;113.524;2022-12-29T09:26:27;226.80;;;78.85;;
69419;SDS011;56612;52.030;113.524;2022-12-29T09:29:48;205.20;;;70.17;;
69419;SDS011;56612;52.030;113.524;2022-12-29T09:32:51;236.25;;;71.90;;
69419;SDS011;56612;52.030;113.524;2022-12-29T09:36:12;231.13;;;75.22;;
69419;SDS011;56612;52.030;113.524;2022-12-29T09:39:16;222.88;;;71.07;;
69419;SDS011;56612;52.030;113.524;2022-12-29T09:46:25;243.25;;;81.00;;
69419;SDS011;56612;52.030;113.524;2022-12-29T09:49:48;243.45;;;80.78;;
69419;SDS011;56612;52.030;113.524;2022-12-29T09:53:31;277.27;;;89.60;;
69419;SDS011;56612;52.030;113.524;2022-12-29T09:56:38;280.37;;;91.37;;
69419;SDS011;56612;52.030;113.524;2022-12-29T09:59:42;300.85;;;95.13;;
69419;SDS011;56612;52.030;113.524;2022-12-29T10:06:32;319.70;;;101.88;;
69419;SDS011;56612;52.030;113.524;2022-12-29T10:10:15;274.87;;;85.03;;
69419;SDS011;56612;52.030;113.524;2022-12-29T10:24:41;240.88;;;80.32;;
69419;SDS011;56612;52.030;113.524;2022-12-29T10:27:50;289.38;;;88.20;;
69419;SDS011;56612;52.030;113.524;2022-12-29T10:31:16;244.07;;;85.60;;
69419;SDS011;56612;52.030;113.524;2022-12-29T10:34:42;332.50;;;109.70;;
69419;SDS011;56612;52.030;113.524;2022-12-29T10:41:38;281.95;;;96.38;;
69419;SDS011;56612;52.030;113.524;2022-12-29T10:45:05;469.48;;;170.75;;
69419;SDS011;56612;52.030;113.524;2022-12-29T10:48:11;512.67;;;181.17;;
69419;SDS011;56612;52.030;113.524;2022-12-29T10:51:36;304.00;;;102.25;;
69419;SDS011;56612;52.030;113.524;2022-12-29T10:54:54;278.65;;;93.03;;
69419;SDS011;56612;52.030;113.524;2022-12-29T10:58:21;299.70;;;104.97;;
69419;SDS011;56612;52.030;113.524;2022-12-29T11:01:27;315.25;;;112.63;;
69419;SDS011;56612;52.030;113.524;2022-12-29T11:08:19;295.40;;;102.32;;
69419;SDS011;56612;52.030;113.524;2022-12-29T11:11:45;304.50;;;111.00;;
69419;SDS011;56612;52.030;113.524;2022-12-29T11:18:25;381.63;;;126.20;;
69419;SDS011;56612;52.030;113.524;2022-12-29T11:21:42;329.23;;;119.28;;
69419;SDS011;56612;52.030;113.524;2022-12-29T11:24:49;297.10;;;107.70;;
69419;SDS011;56612;52.030;113.524;2022-12-29T11:28:13;348.98;;;121.95;;
69419;SDS011;56612;52.030;113.524;2022-12-29T11:31:18;349.35;;;123.50;;
69419;SDS011;56612;52.030;113.524;2022-12-29T11:34:35;386.93;;;124.20;;
69419;SDS011;56612;52.030;113.524;2022-12-29T11:37:39;389.98;;;127.68;;
69419;SDS011;56612;52.030;113.524;2022-12-29T11:40:42;406.25;;;135.85;;
69419;SDS011;56612;52.030;113.524;2022-12-29T11:44:04;433.95;;;151.95;;
69419;SDS011;56612;52.030;113.524;2022-12-29T11:47:08;436.73;;;146.37;;
69419;SDS011;56612;52.030;113.524;2022-12-29T11:50:25;423.10;;;144.40;;
69419;SDS011;56612;52.030;113.524;2022-12-29T11:53:39;356.90;;;123.22;;
69419;SDS011;56612;52.030;113.524;2022-12-29T11:56:45;309.25;;;111.60;;
69419;SDS011;56612;52.030;113.524;2022-12-29T11:59:50;285.13;;;105.40;;
69419;SDS011;56612;52.030;113.524;2022-12-29T12:03:19;329.15;;;107.47;;
69419;SDS011;56612;52.030;113.524;2022-12-29T12:06:25;321.27;;;112.68;;
69419;SDS011;56612;52.030;113.524;2022-12-29T12:09:33;304.38;;;106.22;;
69419;SDS011;56612;52.030;113.524;2022-12-29T12:15:57;390.40;;;135.52;;
69419;SDS011;56612;52.030;113.524;2022-12-29T12:22:51;407.93;;;143.53;;
69419;SDS011;56612;52.030;113.524;2022-12-29T12:26:03;459.25;;;161.00;;
69419;SDS011;56612;52.030;113.524;2022-12-29T12:29:46;566.00;;;216.63;;
69419;SDS011;56612;52.030;113.524;2022-12-29T12:33:39;497.50;;;188.75;;
69419;SDS011;56612;52.030;113.524;2022-12-29T12:36:49;500.80;;;187.75;;
69419;SDS011;56612;52.030;113.524;2022-12-29T12:46:45;512.53;;;190.00;;
69419;SDS011;56612;52.030;113.524;2022-12-29T13:04:42;419.10;;;144.90;;
69419;SDS011;56612;52.030;113.524;2022-12-29T13:15:39;300.60;;;93.47;;
69419;SDS011;56612;52.030;113.524;2022-12-29T13:18:48;288.85;;;100.50;;
69419;SDS011;56612;52.030;113.524;2022-12-29T13:22:09;317.37;;;114.73;;
69419;SDS011;56612;52.030;113.524;2022-12-29T13:25:27;301.08;;;102.15;;
69419;SDS011;56612;52.030;113.524;2022-12-29T13:35:36;225.68;;;80.97;;
69419;SDS011;56612;52.030;113.524;2022-12-29T13:42:23;296.77;;;101.88;;
69419;SDS011;56612;52.030;113.524;2022-12-29T13:45:28;362.87;;;117.57;;
69419;SDS011;56612;52.030;113.524;2022-12-29T13:48:39;292.17;;;102.60;;
69419;SDS011;56612;52.030;113.524;2022-12-29T13:52:09;287.95;;;99.25;;
69419;SDS011;56612;52.030;113.524;2022-12-29T13:55:26;225.50;;;76.97;;
69419;SDS011;56612;52.030;113.524;2022-12-29T14:02:33;226.43;;;74.60;;
69419;SDS011;56612;52.030;113.524;2022-12-29T14:05:42;247.00;;;82.40;;
69419;SDS011;56612;52.030;113.524;2022-12-29T14:08:50;259.50;;;84.82;;
69419;SDS011;56612;52.030;113.524;2022-12-29T14:12:18;208.15;;;72.68;;
69419;SDS011;56612;52.030;113.524;2022-12-29T14:15:24;181.55;;;60.80;;
69419;SDS011;56612;52.030;113.524;2022-12-29T14:18:30;207.83;;;71.37;;
69419;SDS011;56612;52.030;113.524;2022-12-29T14:21:36;156.75;;;55.88;;
69419;SDS011;56612;52.030;113.524;2022-12-29T14:24:42;243.20;;;76.50;;
69419;SDS011;56612;52.030;113.524;2022-12-29T14:27:52;309.27;;;106.67;;
69419;SDS011;56612;52.030;113.524;2022-12-29T14:37:28;311.75;;;106.55;;
69419;SDS011;56612;52.030;113.524;2022-12-29T14:40:35;259.60;;;85.72;;
69419;SDS011;56612;52.030;113.524;2022-12-29T14:43:38;353.67;;;118.47;;
69419;SDS011;56612;52.030;113.524;2022-12-29T14:46:54;234.02;;;70.43;;
69419;SDS011;56612;52.030;113.524;2022-12-29T14:51:00;176.37;;;58.87;;
69419;SDS011;56612;52.030;113.524;2022-12-29T14:57:37;133.07;;;43.88;;
69419;SDS011;56612;52.030;113.524;2022-12-29T15:00:43;99.37;;;32.80;;
69419;SDS011;56612;52.030;113.524;2022-12-29T15:03:49;119.60;;;39.30;;
69419;SDS011;56612;52.030;113.524;2022-12-29T15:06:56;124.35;;;39.92;;
69419;SDS011;56612;52.030;113.524;2022-12-29T15:10:06;146.93;;;43.25;;
69419;SDS011;56612;52.030;113.524;2022-12-29T15:13:32;113.88;;;39.78;;
69419;SDS011;56612;52.030;113.524;2022-12-29T15:16:37;192.23;;;56.65;;
69419;SDS011;56612;52.030;113.524;2022-12-29T15:19:41;117.72;;;34.65;;
69419;SDS011;56612;52.030;113.524;2022-12-29T15:22:44;122.17;;;38.30;;
69419;SDS011;56612;52.030;113.524;2022-12-29T15:25:59;158.02;;;47.80;;
69419;SDS011;56612;52.030;113.524;2022-12-29T15:32:42;111.73;;;35.00;;
69419;SDS011;56612;52.030;113.524;2022-12-29T15:36:08;94.20;;;37.13;;
69419;SDS011;56612;52.030;113.524;2022-12-29T15:39:23;108.85;;;30.17;;
69419;SDS011;56612;52.030;113.524;2022-12-29T15:45:57;105.28;;;32.50;;
69419;SDS011;56612;52.030;113.524;2022-12-29T15:49:07;96.47;;;30.25;;
69419;SDS011;56612;52.030;113.524;2022-12-29T15:52:13;141.27;;;41.63;;
69419;SDS011;56612;52.030;113.524;2022-12-29T15:55:29;92.03;;;28.83;;
69419;SDS011;56612;52.030;113.524;2022-12-29T15:58:42;117.60;;;33.65;;
69419;SDS011;56612;52.030;113.524;2022-12-29T16:01:54;109.45;;;35.75;;
69419;SDS011;56612;52.030;113.524;2022-12-29T16:04:58;244.83;;;78.43;;
69419;SDS011;56612;52.030;113.524;2022-12-29T16:08:24;285.52;;;92.28;;
69419;SDS011;56612;52.030;113.524;2022-12-29T16:11:32;396.40;;;123.72;;
69419;SDS011;56612;52.030;113.524;2022-12-29T16:14:45;296.65;;;104.93;;
69419;SDS011;56612;52.030;113.524;2022-12-29T16:18:32;243.85;;;77.60;;
69419;SDS011;56612;52.030;113.524;2022-12-29T16:21:38;197.38;;;59.97;;
69419;SDS011;56612;52.030;113.524;2022-12-29T16:24:44;113.75;;;38.30;;
69419;SDS011;56612;52.030;113.524;2022-12-29T16:27:48;193.63;;;59.27;;
69419;SDS011;56612;52.030;113.524;2022-12-29T16:30:59;166.80;;;51.45;;
69419;SDS011;56612;52.030;113.524;2022-12-29T16:37:43;103.30;;;37.53;;
69419;SDS011;56612;52.030;113.524;2022-12-29T16:40:57;165.82;;;46.72;;
69419;SDS011;56612;52.030;113.524;2022-12-29T16:47:23;129.23;;;40.67;;
69419;SDS011;56612;52.030;113.524;2022-12-29T16:50:27;108.32;;;40.53;;
69419;SDS011;56612;52.030;113.524;2022-12-29T16:53:32;146.50;;;49.10;;
69419;SDS011;56612;52.030;113.524;2022-12-29T16:56:40;200.98;;;62.42;;
69419;SDS011;56612;52.030;113.524;2022-12-29T16:59:47;319.83;;;106.07;;
69419;SDS011;56612;52.030;113.524;2022-12-29T17:02:56;279.85;;;95.20;;
69419;SDS011;56612;52.030;113.524;2022-12-29T17:06:02;272.63;;;91.95;;
69419;SDS011;56612;52.030;113.524;2022-12-29T17:09:22;273.40;;;94.80;;
69419;SDS011;56612;52.030;113.524;2022-12-29T17:12:28;326.30;;;108.32;;
69419;SDS011;56612;52.030;113.524;2022-12-29T17:15:32;303.63;;;95.47;;
69419;SDS011;56612;52.030;113.524;2022-12-29T17:18:38;270.45;;;84.13;;
69419;SDS011;56612;52.030;113.524;2022-12-29T17:21:41;355.67;;;120.03;;
69419;SDS011;56612;52.030;113.524;2022-12-29T17:24:45;332.75;;;113.03;;
69419;SDS011;56612;52.030;113.524;2022-12-29T17:27:58;295.20;;;103.95;;
69419;SDS011;56612;52.030;113.524;2022-12-29T17:31:05;355.67;;;115.63;;
69419;SDS011;56612;52.030;113.524;2022-12-29T17:34:10;390.58;;;130.05;;
69419;SDS011;56612;52.030;113.524;2022-12-29T17:37:22;429.30;;;135.95;;
69419;SDS011;56612;52.030;113.524;2022-12-29T17:40:31;524.03;;;185.10;;
69419;SDS011;56612;52.030;113.524;2022-12-29T17:43:36;461.83;;;159.02;;
69419;SDS011;56612;52.030;113.524;2022-12-29T17:46:58;395.95;;;126.60;;
69419;SDS011;56612;52.030;113.524;2022-12-29T17:50:01;438.23;;;155.55;;
69419;SDS011;56612;52.030;113.524;2022-12-29T17:53:06;288.73;;;96.97;;
69419;SDS011;56612;52.030;113.524;2022-12-29T17:56:15;270.58;;;93.70;;
69419;SDS011;56612;52.030;113.524;2022-12-29T17:59:20;355.83;;;122.10;;
69419;SDS011;56612;52.030;113.524;2022-12-29T18:02:27;294.20;;;97.47;;
69419;SDS011;56612;52.030;113.524;2022-12-29T18:05:33;329.60;;;110.18;;
69419;SDS011;56612;52.030;113.524;2022-12-29T18:08:37;168.73;;;61.17;;
69419;SDS011;56612;52.030;113.524;2022-12-29T18:11:42;306.33;;;107.77;;
69419;SDS011;56612;52.030;113.524;2022-12-29T18:14:47;247.75;;;86.75;;
69419;SDS011;56612;52.030;113.524;2022-12-29T18:18:10;283.08;;;100.85;;
69419;SDS011;56612;52.030;113.524;2022-12-29T18:21:42;393.90;;;123.95;;
69419;SDS011;56612;52.030;113.524;2022-12-29T18:24:46;252.48;;;91.00;;
69419;SDS011;56612;52.030;113.524;2022-12-29T18:27:50;251.73;;;81.07;;
69419;SDS011;56612;52.030;113.524;2022-12-29T18:30:53;316.38;;;99.72;;
69419;SDS011;56612;52.030;113.524;2022-12-29T18:33:59;274.40;;;92.27;;
69419;SDS011;56612;52.030;113.524;2022-12-29T18:37:09;272.27;;;97.38;;
69419;SDS011;56612;52.030;113.524;2022-12-29T18:40:34;391.27;;;126.10;;
69419;SDS011;56612;52.030;113.524;2022-12-29T18:43:37;390.90;;;134.03;;
69419;SDS011;56612;52.030;113.524;2022-12-29T18:46:40;424.55;;;138.05;;
69419;SDS011;56612;52.030;113.524;2022-12-29T18:49:43;428.42;;;153.63;;
69419;SDS011;56612;52.030;113.524;2022-12-29T18:53:05;299.30;;;103.38;;
69419;SDS011;56612;52.030;113.524;2022-12-29T18:56:09;279.20;;;96.85;;
69419;SDS011;56612;52.030;113.524;2022-12-29T18:59:13;368.88;;;132.45;;
69419;SDS011;56612;52.030;113.524;2022-12-29T19:02:35;335.85;;;119.18;;
69419;SDS011;56612;52.030;113.524;2022-12-29T19:05:40;347.73;;;116.43;;
69419;SDS011;56612;52.030;113.524;2022-12-29T19:08:44;275.15;;;102.95;;
69419;SDS011;56612;52.030;113.524;2022-12-29T19:11:47;299.08;;;112.45;;
69419;SDS011;56612;52.030;113.524;2022-12-29T19:14:50;329.43;;;115.33;;
69419;SDS011;56612;52.030;113.524;2022-12-29T19:17:54;398.25;;;136.45;;
69419;SDS011;56612;52.030;113.524;2022-12-29T19:21:36;323.80;;;113.65;;
69419;SDS011;56612;52.030;113.524;2022-12-29T19:24:40;319.00;;;109.55;;
69419;SDS011;56612;52.030;113.524;2022-12-29T19:27:44;269.25;;;92.20;;
69419;SDS011;56612;52.030;113.524;2022-12-29T19:30:49;337.63;;;118.55;;
69419;SDS011;56612;52.030;113.524;2022-12-29T19:33:54;351.90;;;109.75;;
69419;SDS011;56612;52.030;113.524;2022-12-29T19:36:57;357.40;;;117.63;;
69419;SDS011;56612;52.030;113.524;2022-12-29T19:40:02;301.48;;;108.70;;
69419;SDS011;56612;52.030;113.524;2022-12-29T19:43:07;385.08;;;120.95;;
69419;SDS011;56612;52.030;113.524;2022-12-29T19:46:14;377.13;;;125.87;;
69419;SDS011;56612;52.030;113.524;2022-12-29T19:49:38;329.30;;;115.13;;
69419;SDS011;56612;52.030;113.524;2022-12-29T19:52:42;380.40;;;128.00;;
69419;SDS011;56612;52.030;113.524;2022-12-29T19:55:47;324.23;;;111.60;;
69419;SDS011;56612;52.030;113.524;2022-12-29T19:58:50;307.20;;;110.63;;
69419;SDS011;56612;52.030;113.524;2022-12-29T20:01:54;404.00;;;133.25;;
69419;SDS011;56612;52.030;113.524;2022-12-29T20:04:58;269.63;;;95.45;;
69419;SDS011;56612;52.030;113.524;2022-12-29T20:08:02;346.93;;;115.23;;
69419;SDS011;56612;52.030;113.524;2022-12-29T20:11:07;463.90;;;159.50;;
69419;SDS011;56612;52.030;113.524;2022-12-29T20:14:12;379.48;;;130.82;;
69419;SDS011;56612;52.030;113.524;2022-12-29T20:17:33;261.07;;;90.23;;
69419;SDS011;56612;52.030;113.524;2022-12-29T20:21:19;236.68;;;87.22;;
69419;SDS011;56612;52.030;113.524;2022-12-29T20:24:27;215.02;;;78.30;;